Time;durP1;ratioP1;P1;durP2;ratioP2;P2;SDS_P1;SDS_P2;PMS_P1;PMS_P2;Temp;Humidity;BMP_temperature;BMP_pressure;BME280_temperature;BME280_humidity;BME280_pressure;Samples;Min_cycle;Max_cycle;Signal;HPM_P1;HPM_P2
2022/11/25 00:00:15;;;;;;;0.60;0.60;;;;;;;4.27;85.94;96800.03;29396;207;63009;-58
2022/11/25 00:00:46;;;;;;;0.60;0.60;;;;;;;4.27;86.26;96798.16;29396;199;63005;-58
2022/11/25 00:01:22;;;;;;;0.60;0.60;;;;;;;4.28;86.38;96801.66;29396;210;63009;-58
2022/11/25 00:01:53;;;;;;;0.60;0.60;;;;;;;4.28;86.11;96796.28;29395;196;64009;-57
2022/11/25 00:02:25;;;;;;;0.70;0.70;;;;;;;4.29;86.03;96797.91;29396;206;63009;-70
2022/11/25 00:02:56;;;;;;;0.50;0.50;;;;;;;4.31;86.17;96798.47;29396;244;63004;-58
2022/11/25 00:03:27;;;;;;;0.50;0.50;;;;;;;4.31;85.68;96798.47;29396;290;63024;-58
2022/11/25 00:03:59;;;;;;;0.50;0.50;;;;;;;4.32;85.66;96798.19;29396;197;63004;-58
2022/11/25 00:04:35;;;;;;;0.50;0.50;;;;;;;4.33;85.67;96801.69;29396;236;63008;-57
2022/11/25 00:05:09;;;;;;;0.60;0.60;;;;;;;4.34;85.70;96796.06;29395;207;64009;-57
2022/11/25 00:05:40;;;;;;;0.50;0.50;;;;;;;4.34;85.68;96795.25;29395;223;64014;-58
2022/11/25 00:06:23;;;;;;;0.50;0.50;;;;;;;4.34;85.61;96800.63;29396;216;63005;-58
2022/11/25 00:06:54;;;;;;;0.52;0.52;;;;;;;4.34;85.34;96800.63;29395;209;64013;-57
2022/11/25 00:07:26;;;;;;;0.60;0.60;;;;;;;4.32;85.60;96800.87;29396;324;63004;-58
2022/11/25 00:07:57;;;;;;;0.55;0.55;;;;;;;4.33;85.34;96809.75;29396;216;63009;-58
2022/11/25 00:08:29;;;;;;;0.50;0.50;;;;;;;4.34;85.50;96800.63;29396;215;63005;-71
2022/11/25 00:09:07;;;;;;;0.60;0.60;;;;;;;4.34;85.58;96806.00;29396;222;63009;-58
2022/11/25 00:09:38;;;;;;;0.60;0.60;;;;;;;4.34;85.63;96800.63;29396;294;63004;-58
2022/11/25 00:10:10;;;;;;;0.60;0.60;;;;;;;4.33;85.72;96804.38;29396;207;63009;-57
2022/11/25 00:10:41;;;;;;;0.50;0.50;;;;;;;4.32;85.41;96803.56;29395;227;64009;-58
2022/11/25 00:11:13;;;;;;;0.60;0.60;;;;;;;4.33;85.57;96796.31;29396;225;63009;-57
2022/11/25 00:11:44;;;;;;;0.50;0.50;;;;;;;4.32;85.61;96802.75;29396;202;63004;-57
2022/11/25 00:12:15;;;;;;;0.50;0.50;;;;;;;4.34;85.28;96800.63;29396;216;63008;-59
2022/11/25 00:12:46;;;;;;;0.60;0.60;;;;;;;4.33;85.72;96799.00;29396;221;63005;-58
2022/11/25 00:13:18;;;;;;;0.57;0.57;;;;;;;4.32;85.60;96808.13;29396;245;63030;-57
2022/11/25 00:13:49;;;;;;;0.60;0.60;;;;;;;4.32;85.62;96797.41;29396;222;63005;-58
2022/11/25 00:14:22;;;;;;;0.60;0.60;;;;;;;4.32;85.76;96794.69;29396;270;63009;-58
2022/11/25 00:14:54;;;;;;;0.50;0.50;;;;;;;4.31;86.13;96790.41;29395;279;64009;-58
2022/11/25 00:15:25;;;;;;;0.60;0.60;;;;;;;4.29;85.76;96787.16;29396;237;63009;-57
2022/11/25 00:16:04;;;;;;;0.50;0.50;;;;;;;4.28;85.92;96790.91;29396;235;63005;-57
2022/11/25 00:16:35;;;;;;;0.60;0.60;;;;;;;4.28;86.26;96797.09;29396;228;63026;-58
2022/11/25 00:17:06;;;;;;;0.60;0.60;;;;;;;4.28;86.20;96788.22;29396;226;63004;-72
2022/11/25 00:17:38;;;;;;;0.50;0.50;;;;;;;4.27;85.97;96787.41;29396;200;63009;-58
2022/11/25 00:18:09;;;;;;;0.50;0.50;;;;;;;4.28;86.10;96785.53;29397;250;63004;-57
2022/11/25 00:18:47;;;;;;;0.60;0.60;;;;;;;4.29;85.92;96784.47;29396;277;63009;-59
2022/11/25 00:19:19;;;;;;;0.55;0.55;;;;;;;4.28;85.98;96780.97;29396;223;63004;-58
2022/11/25 00:19:51;;;;;;;0.60;0.60;;;;;;;4.29;86.03;96776.41;29395;214;64013;-58
2022/11/25 00:21:33;;;;;;;0.58;0.58;;;;;;;4.30;86.21;96778.03;88174;202;64005;-58
2022/11/25 00:22:04;;;;;;;0.50;0.50;;;;;;;4.30;85.89;96783.41;29394;230;64009;-57
2022/11/25 00:22:35;;;;;;;0.60;0.60;;;;;;;4.27;86.23;96782.03;29395;335;63005;-58
2022/11/25 00:23:07;;;;;;;0.50;0.50;;;;;;;4.27;86.12;96784.72;29395;320;63009;-70
2022/11/25 00:23:39;;;;;;;0.60;0.60;;;;;;;4.26;86.23;96787.66;29395;212;63005;-57
2022/11/25 00:24:14;;;;;;;0.50;0.50;;;;;;;4.27;86.19;96783.91;29394;233;64013;-58
2022/11/25 00:24:45;;;;;;;0.50;0.50;;;;;;;4.25;86.63;96783.34;29395;222;63005;-57
2022/11/25 00:25:17;;;;;;;0.50;0.50;;;;;;;4.24;86.47;96787.09;29395;209;63009;-57
2022/11/25 00:25:48;;;;;;;0.60;0.60;;;;;;;4.22;86.50;96786.53;29395;295;63005;-58
2022/11/25 00:26:25;;;;;;;0.60;0.60;;;;;;;4.22;86.45;96786.53;29395;365;63009;-58
2022/11/25 00:27:03;;;;;;;0.43;0.43;;;;;;;4.21;86.44;96787.63;29394;349;64004;-58
2022/11/25 00:27:35;;;;;;;0.50;0.50;;;;;;;4.20;86.53;96788.69;29395;196;63009;-58
2022/11/25 00:28:06;;;;;;;0.52;0.52;;;;;;;4.19;86.55;96779.00;29395;220;63004;-70
2022/11/25 00:28:41;;;;;;;0.50;0.50;;;;;;;4.20;86.33;96783.31;29395;208;63008;-73
2022/11/25 00:29:13;;;;;;;0.60;0.60;;;;;;;4.19;86.25;96787.88;29394;208;64007;-73
2022/11/25 00:29:44;;;;;;;0.50;0.50;;;;;;;4.20;86.06;96789.50;29394;322;64014;-57
2022/11/25 00:30:17;;;;;;;0.57;0.57;;;;;;;4.18;86.03;96782.75;29395;252;63005;-70
2022/11/25 00:30:48;;;;;;;0.55;0.55;;;;;;;4.17;86.46;96794.56;29395;267;63009;-74
2022/11/25 00:31:22;;;;;;;0.60;0.60;;;;;;;4.16;86.44;96798.34;29395;212;63005;-71
2022/11/25 00:31:53;;;;;;;0.60;0.60;;;;;;;4.13;86.25;96793.47;29395;253;63009;-72
2022/11/25 00:32:25;;;;;;;0.57;0.57;;;;;;;4.13;86.16;96788.09;29395;208;63005;-73
2022/11/25 00:32:57;;;;;;;0.55;0.55;;;;;;;4.09;86.28;96787.78;29395;218;63009;-71
2022/11/25 00:33:28;;;;;;;0.60;0.60;;;;;;;4.04;86.26;96785.06;29395;228;63004;-70
2022/11/25 00:34:00;;;;;;;1.05;0.90;;;;;;;4.06;86.40;96784.81;29395;307;63009;-58
2022/11/25 00:34:32;;;;;;;0.60;0.60;;;;;;;4.06;85.94;96787.47;29394;222;64009;-58
2022/11/25 00:35:04;;;;;;;0.60;0.60;;;;;;;4.14;85.34;96785.16;29395;267;63009;-58
2022/11/25 00:35:36;;;;;;;0.60;0.60;;;;;;;4.17;85.01;96794.56;29394;234;64004;-59
2022/11/25 00:36:19;;;;;;;0.60;0.60;;;;;;;4.15;84.87;96781.41;29394;220;64013;-59
2022/11/25 00:36:52;;;;;;;0.60;0.60;;;;;;;4.11;84.99;96790.22;29395;232;63005;-58
2022/11/25 00:37:23;;;;;;;0.60;0.60;;;;;;;4.06;85.17;96792.84;29395;259;63009;-58
2022/11/25 00:37:58;;;;;;;0.60;0.60;;;;;;;4.02;85.32;96784.50;29395;239;63005;-61
2022/11/25 00:38:29;;;;;;;0.60;0.60;;;;;;;4.00;85.25;96787.44;29395;269;63009;-58
2022/11/25 00:39:06;;;;;;;0.60;0.60;;;;;;;3.98;85.67;96786.88;29395;229;63005;-59
2022/11/25 00:39:38;;;;;;;0.50;0.50;;;;;;;4.00;85.42;96779.38;29395;218;63009;-58
2022/11/25 00:40:10;;;;;;;0.60;0.60;;;;;;;4.00;85.54;96784.75;29395;203;63004;-71
2022/11/25 00:40:42;;;;;;;0.60;0.60;;;;;;;4.01;85.59;96788.25;29395;216;63009;-59
2022/11/25 00:44:38;;;;;;;0.60;0.60;;;;;;;3.89;86.20;96783.00;29395;251;63005;-58
2022/11/25 00:45:10;;;;;;;0.60;0.60;;;;;;;3.89;86.52;96783.00;29395;230;63014;-57
2022/11/25 00:45:42;;;;;;;0.60;0.60;;;;;;;3.87;86.58;96785.13;29395;235;63000;-59
2022/11/25 00:46:13;;;;;;;0.60;0.60;;;;;;;3.87;86.39;96782.44;29395;203;63009;-58
2022/11/25 00:46:44;;;;;;;0.60;0.60;;;;;;;3.87;86.67;96779.78;29395;221;63005;-58
2022/11/25 00:47:19;;;;;;;0.60;0.60;;;;;;;3.90;86.32;96781.12;29395;205;63009;-76
2022/11/25 00:47:53;;;;;;;0.60;0.60;;;;;;;3.92;86.64;96779.81;29395;206;63004;-58
2022/11/25 00:48:24;;;;;;;0.60;0.60;;;;;;;3.95;85.82;96781.19;29395;202;63009;-59
2022/11/25 00:48:56;;;;;;;0.60;0.60;;;;;;;3.96;86.00;96789.00;29394;225;64009;-60
2022/11/25 00:49:27;;;;;;;0.60;0.60;;;;;;;3.98;85.76;96786.88;29395;211;63009;-58
2022/11/25 00:49:58;;;;;;;0.57;0.57;;;;;;;4.00;85.70;96782.06;29395;214;63004;-58
2022/11/25 00:50:30;;;;;;;0.60;0.60;;;;;;;4.01;85.54;96772.94;29395;213;63008;-59
2022/11/25 00:51:01;;;;;;;0.60;0.60;;;;;;;4.07;85.65;96778.38;29395;198;63011;-58
2022/11/25 00:51:32;;;;;;;0.60;0.60;;;;;;;4.10;85.37;96788.59;29395;219;63009;-58
2022/11/25 00:52:04;;;;;;;0.60;0.60;;;;;;;4.07;85.33;96783.75;29395;322;63017;-58
2022/11/25 00:52:36;;;;;;;0.60;0.60;;;;;;;4.06;85.11;96782.13;29395;200;63009;-57
2022/11/25 00:53:07;;;;;;;0.60;0.60;;;;;;;4.02;85.51;96782.63;29395;220;63005;-58
2022/11/25 00:53:39;;;;;;;0.60;0.60;;;;;;;4.02;85.94;96788.00;29394;240;64013;-59
2022/11/25 00:54:10;;;;;;;0.60;0.60;;;;;;;4.03;85.78;96789.63;29395;236;63009;-58
2022/11/25 00:54:43;;;;;;;0.60;0.60;;;;;;;4.02;85.75;96788.00;29395;231;63009;-58
2022/11/25 00:55:15;;;;;;;0.50;0.50;;;;;;;3.97;85.85;96787.94;29395;239;63004;-58
2022/11/25 00:56:39;;;;;;;0.60;0.60;;;;;;;3.97;86.09;96790.63;29395;208;63004;-58
2022/11/25 00:57:12;;;;;;;0.60;0.60;;;;;;;3.96;86.06;96786.31;29395;296;63017;-57
2022/11/25 00:57:43;;;;;;;0.60;0.60;;;;;;;3.97;86.25;96785.25;29395;234;63004;-72
2022/11/25 00:58:15;;;;;;;0.60;0.60;;;;;;;3.99;86.07;96785.81;29395;278;63008;-58
2022/11/25 00:58:46;;;;;;;0.60;0.60;;;;;;;3.98;86.05;96789.56;29394;216;64009;-59
2022/11/25 00:59:19;;;;;;;0.50;0.50;;;;;;;3.98;86.34;96781.50;29395;202;63013;-58
2022/11/25 00:59:50;;;;;;;0.60;0.60;;;;;;;3.95;86.41;96781.19;29394;226;64009;-58
2022/11/25 01:00:22;;;;;;;0.60;0.60;;;;;;;3.94;86.20;96784.94;29395;255;63009;-59
2022/11/25 01:00:54;;;;;;;0.60;0.60;;;;;;;3.93;86.31;96784.13;29395;222;63005;-57
2022/11/25 01:01:25;;;;;;;0.60;0.60;;;;;;;3.93;86.48;96783.31;29395;214;63009;-58
2022/11/25 01:01:57;;;;;;;0.55;0.55;;;;;;;3.92;86.81;96782.50;29394;199;64009;-70
2022/11/25 01:02:31;;;;;;;0.60;0.60;;;;;;;3.92;86.72;96792.44;29395;227;63009;-58
2022/11/25 01:03:03;;;;;;;0.60;0.60;;;;;;;3.92;86.70;96793.25;29395;233;63004;-59
2022/11/25 01:03:38;;;;;;;0.60;0.60;;;;;;;3.93;86.59;96789.50;29395;215;63009;-59
2022/11/25 01:04:10;;;;;;;0.60;0.60;;;;;;;3.93;86.60;96794.88;29395;224;63008;-58
2022/11/25 01:04:41;;;;;;;0.50;0.50;;;;;;;3.93;86.43;96784.13;29395;202;63009;-58
2022/11/25 01:05:12;;;;;;;0.60;0.60;;;;;;;3.95;86.40;96790.06;29395;207;63004;-58
2022/11/25 01:05:44;;;;;;;0.60;0.60;;;;;;;3.94;86.33;96796.50;29395;223;63008;-59
2022/11/25 01:06:15;;;;;;;0.50;0.50;;;;;;;3.94;86.32;96788.44;29395;220;63005;-58
2022/11/25 01:06:46;;;;;;;0.60;0.60;;;;;;;3.95;86.40;96787.38;29395;244;63009;-74
2022/11/25 01:07:18;;;;;;;0.55;0.55;;;;;;;3.95;86.57;96792.75;29394;238;64009;-58
2022/11/25 01:07:49;;;;;;;0.60;0.60;;;;;;;3.95;86.59;96790.06;29395;229;63009;-59
2022/11/25 01:08:20;;;;;;;0.60;0.60;;;;;;;3.95;86.58;96794.63;29395;226;63005;-57
2022/11/25 01:08:52;;;;;;;0.60;0.60;;;;;;;3.95;86.52;96791.94;29395;251;63009;-58
2022/11/25 01:09:24;;;;;;;0.60;0.60;;;;;;;3.92;86.53;96798.63;29395;202;63005;-58
2022/11/25 01:09:56;;;;;;;0.60;0.60;;;;;;;3.93;86.38;96797.56;29395;262;63009;-58
2022/11/25 01:10:27;;;;;;;0.60;0.60;;;;;;;3.93;86.38;96794.88;29395;217;63004;-58
2022/11/25 01:11:07;;;;;;;0.60;0.60;;;;;;;3.93;86.41;96804.78;29395;215;63009;-58
2022/11/25 01:11:39;;;;;;;0.50;0.50;;;;;;;3.92;86.72;96801.31;29395;215;63004;-59
2022/11/25 01:12:10;;;;;;;0.60;0.60;;;;;;;3.92;86.68;96798.63;29395;234;63009;-59
2022/11/25 01:12:46;;;;;;;0.57;0.57;;;;;;;3.96;86.38;96799.75;29394;202;64009;-71
2022/11/25 01:13:17;;;;;;;0.50;0.50;;;;;;;3.95;85.98;96808.03;29395;222;63008;-59
2022/11/25 01:13:50;;;;;;;0.50;0.50;;;;;;;3.97;86.19;96800.53;29394;212;64009;-58
2022/11/25 01:14:22;;;;;;;0.60;0.60;;;;;;;3.99;85.92;96793.88;29395;218;63009;-58
2022/11/25 01:14:53;;;;;;;0.60;0.60;;;;;;;4.00;85.74;96795.50;29395;203;63005;-59
2022/11/25 01:15:25;;;;;;;0.60;0.60;;;;;;;3.98;85.76;96794.94;29395;212;63012;-58
2022/11/25 01:15:58;;;;;;;0.60;0.60;;;;;;;3.98;85.90;96797.63;29395;223;63005;-58
2022/11/25 01:16:30;;;;;;;0.60;0.60;;;;;;;4.02;86.28;96788.00;29394;332;64013;-58
2022/11/25 01:17:01;;;;;;;0.60;0.60;;;;;;;4.04;85.75;96790.41;29373;216;63005;-59
2022/11/25 01:17:33;;;;;;;0.60;0.60;;;;;;;4.11;85.69;96795.59;29394;213;64013;-58
2022/11/25 01:18:05;;;;;;;0.50;0.50;;;;;;;4.13;85.17;96801.53;29395;267;63004;-59
2022/11/25 01:18:36;;;;;;;0.60;0.60;;;;;;;4.11;85.19;96795.59;29395;197;63009;-57
2022/11/25 01:19:09;;;;;;;0.57;0.57;;;;;;;4.11;85.30;96803.66;29395;240;63004;-58
2022/11/25 01:19:40;;;;;;;0.60;0.60;;;;;;;4.07;85.26;96799.84;29395;204;63015;-58
2022/11/25 01:20:15;;;;;;;0.60;0.60;;;;;;;4.06;85.62;96798.22;29395;239;63004;-58
2022/11/25 01:20:46;;;;;;;0.50;0.50;;;;;;;4.10;84.99;96799.34;29395;229;63008;-59
2022/11/25 01:21:21;;;;;;;0.60;0.60;;;;;;;4.14;85.22;96795.09;29395;225;63005;-59
2022/11/25 01:21:52;;;;;;;0.60;0.60;;;;;;;4.17;84.88;96791.87;29395;210;63009;-59
2022/11/25 01:22:24;;;;;;;0.50;0.50;;;;;;;4.20;84.60;96792.16;29394;206;64009;-59
2022/11/25 01:22:55;;;;;;;0.60;0.60;;;;;;;4.20;84.54;96789.50;29395;211;63009;-57
2022/11/25 01:23:27;;;;;;;0.60;0.60;;;;;;;4.23;84.95;96793.53;29395;218;63005;-58
2022/11/25 01:24:01;;;;;;;0.60;0.60;;;;;;;4.26;84.16;96793.03;29395;354;63009;-59
2022/11/25 01:24:33;;;;;;;0.50;0.50;;;;;;;4.25;84.57;96792.22;29395;271;63005;-59
2022/11/25 01:25:05;;;;;;;0.50;0.50;;;;;;;4.25;84.26;96791.41;29395;214;63009;-59
2022/11/25 01:25:37;;;;;;;0.60;0.60;;;;;;;4.23;84.31;96797.03;29395;211;63004;-59
2022/11/25 01:26:15;;;;;;;0.55;0.55;;;;;;;4.24;84.02;96792.47;29395;246;63009;-58
2022/11/25 01:26:46;;;;;;;0.60;0.60;;;;;;;4.21;84.35;96788.41;29394;220;64009;-58
2022/11/25 01:27:17;;;;;;;0.52;0.52;;;;;;;4.22;84.72;96789.22;29394;207;64013;-59
2022/11/25 01:27:49;;;;;;;0.50;0.50;;;;;;;4.23;84.70;96785.47;29395;238;63004;-59
2022/11/25 01:28:20;;;;;;;0.52;0.52;;;;;;;4.22;84.20;96787.34;29395;202;63008;-59
2022/11/25 01:28:59;;;;;;;0.60;0.60;;;;;;;4.19;84.73;96793.25;29395;259;63005;-59
2022/11/25 01:29:31;;;;;;;0.60;0.60;;;;;;;4.17;84.62;96789.19;29395;220;63009;-59
2022/11/25 01:30:05;;;;;;;0.60;0.60;;;;;;;4.16;85.14;96790.28;29395;208;63005;-58
2022/11/25 01:30:36;;;;;;;0.57;0.57;;;;;;;4.14;84.84;96784.34;29395;200;63015;-72
2022/11/25 01:31:17;;;;;;;0.75;0.75;;;;;;;4.13;84.98;96788.91;29395;211;63005;-60
2022/11/25 01:31:49;;;;;;;0.60;0.60;;;;;;;4.13;84.64;96782.72;29416;215;64013;-59
2022/11/25 01:32:20;;;;;;;0.60;0.60;;;;;;;4.14;85.07;96785.16;29395;272;63011;-59
2022/11/25 01:32:51;;;;;;;0.60;0.60;;;;;;;4.16;84.72;96787.59;29395;208;63009;-58
2022/11/25 01:33:24;;;;;;;0.60;0.60;;;;;;;4.15;84.90;96785.97;29395;237;63015;-59
2022/11/25 01:34:02;;;;;;;0.60;0.60;;;;;;;4.12;84.50;96784.59;29395;210;63009;-59
2022/11/25 01:34:33;;;;;;;0.52;0.52;;;;;;;4.16;84.92;96785.69;29395;246;63004;-59
2022/11/25 01:35:06;;;;;;;0.52;0.52;;;;;;;4.18;84.40;96782.75;29395;198;63009;-58
2022/11/25 01:35:42;;;;;;;0.60;0.60;;;;;;;4.21;84.71;96790.28;29394;211;64008;-58
2022/11/25 01:36:15;;;;;;;0.50;0.50;;;;;;;4.22;84.66;96782.00;29395;251;63014;-58
2022/11/25 01:36:47;;;;;;;0.60;0.60;;;;;;;4.24;84.80;96789.78;29395;211;63005;-58
2022/11/25 01:37:18;;;;;;;0.50;0.50;;;;;;;4.23;84.38;96785.47;29395;213;63009;-58
2022/11/25 01:37:50;;;;;;;0.60;0.60;;;;;;;4.22;84.58;96775.81;29395;197;63005;-58
2022/11/25 01:38:21;;;;;;;0.60;0.60;;;;;;;4.20;84.73;96777.94;29394;358;64013;-58
2022/11/25 01:38:55;;;;;;;0.55;0.55;;;;;;;4.19;84.51;96774.44;29395;213;63005;-59
2022/11/25 01:39:27;;;;;;;0.60;0.60;;;;;;;4.20;84.77;96776.06;29395;217;63009;-58
2022/11/25 01:39:58;;;;;;;0.60;0.60;;;;;;;4.23;84.74;96782.81;29395;242;63005;-61
2022/11/25 01:40:29;;;;;;;0.60;0.60;;;;;;;4.25;84.65;96780.66;29395;317;63009;-60
2022/11/25 01:41:01;;;;;;;0.50;0.50;;;;;;;4.32;84.72;96786.66;29395;210;63004;-59
2022/11/25 01:41:34;;;;;;;0.60;0.60;;;;;;;4.36;84.42;96785.06;29394;228;64013;-61
2022/11/25 01:42:05;;;;;;;0.60;0.60;;;;;;;4.38;84.03;96775.69;29395;223;63004;-59
2022/11/25 01:42:43;;;;;;;0.60;0.60;;;;;;;4.35;83.85;96786.13;29395;196;63009;-58
2022/11/25 01:43:15;;;;;;;1.70;1.70;;;;;;;4.31;84.08;96782.34;29395;222;63004;-59
2022/11/25 01:44:28;;;;;;;1.35;1.35;;;;;;;4.30;84.03;96783.41;29395;212;63008;-60
2022/11/25 01:45:27;;;;;;;;;;;;;;;4.30;84.39;96786.09;29996;982;6000;-58
2022/11/25 01:46:27;;;;;;;0.60;0.60;;;;;;;4.30;84.19;96791.47;29400;207;63005;-58
2022/11/25 01:47:31;;;;;;;0.60;0.60;;;;;;;4.23;84.35;96788.16;29394;203;64013;-58
2022/11/25 01:48:21;;;;;;;0.50;0.50;;;;;;;4.30;84.56;96780.72;29395;202;63004;-59
2022/11/25 01:49:05;;;;;;;0.60;0.60;;;;;;;4.31;84.54;96779.66;29395;196;63009;-58
2022/11/25 01:50:00;;;;;;;0.60;0.60;;;;;;;4.33;84.19;96772.16;29395;283;63004;-59
2022/11/25 01:50:33;;;;;;;0.50;0.50;;;;;;;4.33;84.15;96777.53;29395;274;63008;-58
2022/11/25 01:51:09;;;;;;;0.57;0.57;;;;;;;4.31;84.24;96779.66;29395;201;63004;-58
2022/11/25 01:52:14;;;;;;;0.60;0.60;;;;;;;4.26;84.38;96787.66;29394;228;64014;-72
2022/11/25 01:52:49;;;;;;;0.50;0.50;;;;;;;4.23;84.70;96777.44;29395;211;63005;-59
2022/11/25 01:53:22;;;;;;;0.60;0.60;;;;;;;4.21;85.27;96774.19;29395;229;63009;-58
2022/11/25 01:53:58;;;;;;;0.90;0.90;;;;;;;4.18;85.49;96780.88;29371;211;64009;-59
2022/11/25 01:54:37;;;;;;;0.60;0.60;;;;;;;4.15;85.23;96786.78;29373;243;63009;-59
2022/11/25 01:55:14;;;;;;;0.50;0.50;;;;;;;4.15;85.36;96788.66;29373;277;63004;-58
2022/11/25 01:55:54;;;;;;;0.60;0.60;;;;;;;4.11;85.53;96785.66;29395;196;63009;-59
2022/11/25 01:56:28;;;;;;;0.55;0.55;;;;;;;4.12;85.59;96791.84;29373;244;63004;-60
2022/11/25 01:57:05;;;;;;;0.52;0.52;;;;;;;4.16;85.87;96787.59;29395;197;63009;-58
2022/11/25 01:57:46;;;;;;;0.50;0.50;;;;;;;4.15;85.85;96788.66;29395;196;63004;-57
2022/11/25 01:58:32;;;;;;;0.60;0.60;;;;;;;4.15;85.97;96785.97;29417;196;63009;-59
2022/11/25 01:59:04;;;;;;;0.60;0.60;;;;;;;4.16;86.32;96792.97;29394;232;64009;-57
2022/11/25 01:59:43;;;;;;;0.70;0.70;;;;;;;4.16;86.07;96787.59;29395;219;63009;-58
2022/11/25 02:00:15;;;;;;;0.50;0.50;;;;;;;4.15;85.66;96786.78;29395;231;63005;-58
2022/11/25 02:00:50;;;;;;;0.60;0.60;;;;;;;4.16;86.04;96782.22;29395;202;63009;-58
2022/11/25 02:01:24;;;;;;;0.55;0.55;;;;;;;4.18;86.11;96780.88;29395;229;63005;-58
2022/11/25 02:01:59;;;;;;;0.60;0.60;;;;;;;4.24;86.19;96784.41;29395;308;63009;-59
2022/11/25 02:02:34;;;;;;;0.60;0.60;;;;;;;4.27;85.52;96783.91;29395;240;63004;-59
2022/11/25 02:03:07;;;;;;;0.60;0.60;;;;;;;4.27;85.62;96784.72;29395;231;63009;-59
2022/11/25 02:03:49;;;;;;;0.60;0.60;;;;;;;4.31;85.41;96780.47;29395;271;63004;-59
2022/11/25 02:04:27;;;;;;;5.70;5.28;;;;;;;4.30;85.49;96786.09;29394;293;64013;-58
2022/11/25 02:05:02;;;;;;;0.50;0.50;;;;;;;4.30;85.34;96783.41;29395;304;63010;-59
2022/11/25 02:06:05;;;;;;;0.50;0.50;;;;;;;4.30;85.48;96778.03;29395;202;63008;-59
2022/11/25 02:06:45;;;;;;;0.60;0.60;;;;;;;4.29;85.40;96781.78;29394;203;64005;-59
2022/11/25 02:07:39;;;;;;;0.50;0.50;;;;;;;4.31;85.54;96779.66;29394;275;64009;-59
2022/11/25 02:08:12;;;;;;;0.60;0.60;;;;;;;4.28;85.31;96790.91;29395;203;63005;-59
2022/11/25 02:08:48;;;;;;;0.60;0.60;;;;;;;4.29;85.69;96792.53;29395;211;63009;-60
2022/11/25 02:09:20;;;;;;;0.57;0.57;;;;;;;4.28;85.31;96791.72;29395;235;63005;-70
2022/11/25 02:09:53;;;;;;;0.60;0.60;;;;;;;4.26;85.50;96793.84;29394;222;64013;-58
2022/11/25 02:10:28;;;;;;;0.70;0.70;;;;;;;4.26;85.27;96788.47;29395;220;63004;-72
2022/11/25 02:11:03;;;;;;;0.60;0.60;;;;;;;4.26;85.56;96790.34;29395;238;63009;-59
2022/11/25 02:11:38;;;;;;;0.60;0.60;;;;;;;4.24;85.41;96789.78;29395;254;63004;-58
2022/11/25 02:12:10;;;;;;;0.57;0.57;;;;;;;4.30;85.65;96784.22;29395;269;63009;-60
2022/11/25 02:12:45;;;;;;;0.60;0.60;;;;;;;4.30;85.25;96783.41;29395;230;63004;-59
2022/11/25 02:13:16;;;;;;;0.57;0.57;;;;;;;4.29;85.62;96781.78;29395;238;63009;-59
2022/11/25 02:13:50;;;;;;;0.60;0.60;;;;;;;4.33;85.19;96782.91;29395;245;63005;-59
2022/11/25 02:14:24;;;;;;;0.50;0.50;;;;;;;4.32;85.73;96781.28;29395;199;63009;-58
2022/11/25 02:14:58;;;;;;;0.60;0.60;;;;;;;4.30;85.70;96778.84;29394;280;64009;-61
2022/11/25 02:15:32;;;;;;;0.60;0.60;;;;;;;4.29;85.46;96784.47;29395;272;63014;-59
2022/11/25 02:16:04;;;;;;;0.60;0.60;;;;;;;4.26;85.21;96787.66;29395;215;63015;-59
2022/11/25 02:16:36;;;;;;;0.60;0.60;;;;;;;4.25;85.83;96786.03;29395;240;63009;-72
2022/11/25 02:17:07;;;;;;;0.55;0.55;;;;;;;4.23;85.72;96788.16;29395;216;63005;-58
2022/11/25 02:17:39;;;;;;;0.50;0.50;;;;;;;4.22;85.49;96786.53;29395;203;63009;-58
2022/11/25 02:18:10;;;;;;;0.57;0.57;;;;;;;4.20;85.80;96777.94;29395;222;63004;-58
2022/11/25 02:18:42;;;;;;;0.60;0.60;;;;;;;4.20;86.10;96786.00;29395;204;63009;-58
2022/11/25 02:19:22;;;;;;;0.55;0.55;;;;;;;4.20;85.91;96783.31;29395;209;63004;-59
2022/11/25 02:20:15;;;;;;;0.50;0.50;;;;;;;4.23;86.15;96783.59;29395;214;63009;-59
2022/11/25 02:20:47;;;;;;;0.60;0.60;;;;;;;4.22;85.72;96791.91;29394;237;64009;-59
2022/11/25 02:21:30;;;;;;;0.60;0.60;;;;;;;4.22;86.08;96786.53;29395;242;63009;-58
2022/11/25 02:22:09;;;;;;;0.50;0.50;;;;;;;4.25;85.71;96794.09;29395;237;63005;-58
2022/11/25 02:23:24;;;;;;;0.60;0.60;;;;;;;4.20;85.61;96794.84;29395;196;63009;-59
2022/11/25 02:24:17;;;;;;;0.60;0.60;;;;;;;4.17;86.10;96789.19;29395;242;63010;-58
2022/11/25 02:24:53;;;;;;;0.52;0.52;;;;;;;4.14;86.45;96787.84;29395;228;63009;-61
2022/11/25 02:25:39;;;;;;;0.60;0.60;;;;;;;4.14;86.19;96784.34;29395;233;63004;-59
2022/11/25 02:26:11;;;;;;;0.52;0.52;;;;;;;4.16;86.07;96790.28;29394;245;64013;-59
2022/11/25 02:26:43;;;;;;;0.60;0.60;;;;;;;4.15;86.10;96791.34;29395;216;63004;-59
2022/11/25 02:27:15;;;;;;;0.60;0.60;;;;;;;4.13;86.23;96780.03;29395;202;63009;-59
2022/11/25 02:27:51;;;;;;;0.60;0.60;;;;;;;4.13;86.60;96777.34;29395;237;63004;-60
2022/11/25 02:28:29;;;;;;;0.60;0.60;;;;;;;4.14;86.61;96781.66;29395;336;63009;-58
2022/11/25 02:29:01;;;;;;;0.50;0.50;;;;;;;4.13;86.68;96782.72;29395;272;63005;-59
2022/11/25 02:29:33;;;;;;;0.70;0.70;;;;;;;4.14;86.72;96784.34;29373;264;63009;-59
2022/11/25 02:30:06;;;;;;;0.50;0.50;;;;;;;4.13;86.21;96783.53;29395;231;63005;-58
2022/11/25 02:30:38;;;;;;;0.60;0.60;;;;;;;4.10;86.61;96786.72;29395;208;63009;-58
2022/11/25 02:31:09;;;;;;;0.60;0.60;;;;;;;4.04;86.55;96780.50;29395;222;63005;-58
2022/11/25 02:31:40;;;;;;;0.52;0.52;;;;;;;4.02;86.56;96779.94;29394;232;64013;-59
2022/11/25 02:32:12;;;;;;;0.60;0.60;;;;;;;4.02;86.75;96785.31;29395;224;63005;-59
2022/11/25 02:32:47;;;;;;;0.60;0.60;;;;;;;4.00;86.98;96784.75;29395;337;63009;-58
2022/11/25 02:33:20;;;;;;;0.52;0.52;;;;;;;3.99;86.84;96782.31;29395;211;63004;-57
2022/11/25 02:33:51;;;;;;;0.50;0.50;;;;;;;3.97;nan;96784.44;29395;237;63009;-58
2022/11/25 02:34:23;;;;;;;0.60;0.60;;;;;;;3.94;87.11;96780.38;29395;208;63004;-58
2022/11/25 02:34:54;;;;;;;0.50;0.50;;;;;;;3.92;87.13;96787.88;29395;252;63009;-58
2022/11/25 02:35:32;;;;;;;0.50;0.50;;;;;;;3.88;87.54;96781.38;29395;215;63004;-57
2022/11/25 02:36:11;;;;;;;0.50;0.50;;;;;;;3.86;87.90;96788.06;29395;203;63009;-58
2022/11/25 02:36:43;;;;;;;0.60;0.60;;;;;;;3.84;87.62;96779.47;29394;209;64009;-71
2022/11/25 02:37:18;;;;;;;0.60;0.60;;;;;;;3.84;87.86;96785.63;29395;246;63009;-58
2022/11/25 02:37:49;;;;;;;0.50;0.50;;;;;;;3.84;87.69;96782.97;29395;224;63005;-59
2022/11/25 02:38:46;;;;;;;0.60;0.60;;;;;;;3.86;87.59;96778.16;29395;219;63009;-71
2022/11/25 02:39:19;;;;;;;0.50;0.50;;;;;;;3.88;88.13;96780.59;29395;304;63005;-58
2022/11/25 02:39:52;;;;;;;0.60;0.60;;;;;;;3.87;87.50;96774.41;29395;210;63009;-58
2022/11/25 02:40:26;;;;;;;0.60;0.60;;;;;;;3.86;87.73;96778.16;29395;216;63004;-58
2022/11/25 02:41:08;;;;;;;0.60;0.60;;;;;;;3.85;87.68;96775.72;29395;224;63009;-58
2022/11/25 02:41:45;;;;;;;0.60;0.60;;;;;;;3.83;88.01;96775.97;29395;209;63004;-58
2022/11/25 02:42:20;;;;;;;0.60;0.60;;;;;;;3.84;88.22;96768.72;29394;198;64013;-58
2022/11/25 02:42:52;;;;;;;0.60;0.60;;;;;;;3.82;88.20;96771.66;29395;204;63004;-58
2022/11/25 02:43:26;;;;;;;0.60;0.60;;;;;;;3.82;88.09;96760.91;29395;202;63018;-60
2022/11/25 02:43:57;;;;;;;0.52;0.52;;;;;;;3.84;88.46;96769.53;29395;227;63005;-58
2022/11/25 02:44:29;;;;;;;0.57;0.57;;;;;;;3.84;88.03;96761.47;29395;232;63009;-58
2022/11/25 02:45:02;;;;;;;0.50;0.50;;;;;;;3.84;88.39;96764.16;29395;199;63005;-59
2022/11/25 02:45:43;;;;;;;0.50;0.50;;;;;;;3.88;87.97;96769.84;29395;221;63009;-58
2022/11/25 02:46:17;;;;;;;0.50;0.50;;;;;;;3.89;87.96;96774.16;29395;262;63005;-58
2022/11/25 02:46:48;;;;;;;0.57;0.57;;;;;;;3.86;87.93;96767.41;29395;328;63009;-58
2022/11/25 02:47:21;;;;;;;0.50;0.50;;;;;;;3.85;87.87;96770.34;29394;265;64009;-58
2022/11/25 02:47:52;;;;;;;0.60;0.60;;;;;;;3.84;88.04;96768.72;29395;259;63009;-58
2022/11/25 02:48:25;;;;;;;0.60;0.60;;;;;;;3.81;88.44;96764.66;29395;221;63004;-58
2022/11/25 02:48:58;;;;;;;0.60;0.60;;;;;;;3.79;88.26;96766.81;29395;257;63009;-58
2022/11/25 02:49:29;;;;;;;0.57;0.57;;;;;;;3.78;88.41;96767.06;29395;211;63004;-58
2022/11/25 02:50:00;;;;;;;0.50;0.50;;;;;;;3.76;88.37;96772.69;29395;211;63009;-58
2022/11/25 02:50:31;;;;;;;0.70;0.70;;;;;;;3.75;88.61;96768.38;29395;229;63004;-58
2022/11/25 02:51:05;;;;;;;0.60;0.60;;;;;;;3.75;88.51;96776.44;29395;236;63009;-58
2022/11/25 02:51:38;;;;;;;0.60;0.60;;;;;;;3.73;89.23;96778.56;29395;197;63005;-59